Time;durP1;ratioP1;P1;durP2;ratioP2;P2;SDS_P1;SDS_P2;PMS_P1;PMS_P2;Temp;Humidity;BMP_temperature;BMP_pressure;BME280_temperature;BME280_humidity;BME280_pressure;Samples;Min_cycle;Max_cycle;Signal;HPM_P1;HPM_P2
2021/10/14 00:00:18;;;;;;;3.60;2.10;;;;;;;;;;5104569;28;20203;-62
2021/10/14 00:02:46;;;;;;;2.97;2.17;;;;;;;;;;5117260;28;20655;-62
2021/10/14 00:05:16;;;;;;;5.83;2.40;;;;;;;;;;5117860;28;20233;-62
2021/10/14 00:07:44;;;;;;;3.43;1.67;;;;;;;;;;5117926;28;20295;-62
2021/10/14 00:10:12;;;;;;;4.80;2.33;;;;;;;;;;5118026;28;20311;-62
2021/10/14 00:12:39;;;;;;;3.57;2.00;;;;;;;;;;5117827;28;20208;-62
2021/10/14 00:15:09;;;;;;;4.97;2.30;;;;;;;;;;5117788;28;20227;-62
2021/10/14 00:17:38;;;;;;;3.30;1.83;;;;;;;;;;5120367;28;20292;-62
2021/10/14 00:20:06;;;;;;;4.07;2.23;;;;;;;;;;5121779;28;20201;-62
2021/10/14 00:22:34;;;;;;;2.70;1.87;;;;;;;;;;5121603;28;20212;-62
2021/10/14 00:25:03;;;;;;;3.23;2.50;;;;;;;;;;5122036;28;20221;-62
2021/10/14 00:27:31;;;;;;;2.00;1.90;;;;;;;;;;5121741;28;20283;-62
2021/10/14 00:29:59;;;;;;;2.10;1.90;;;;;;;;;;5121576;28;20240;-62
2021/10/14 00:32:28;;;;;;;2.23;2.03;;;;;;;;;;5121110;28;20687;-62
2021/10/14 00:34:56;;;;;;;3.23;2.17;;;;;;;;;;5121634;28;20312;-62
2021/10/14 00:37:24;;;;;;;3.63;2.10;;;;;;;;;;5121585;28;20222;-62
2021/10/14 00:39:52;;;;;;;3.10;2.27;;;;;;;;;;5121437;27;20260;-62
2021/10/14 00:42:20;;;;;;;2.93;2.37;;;;;;;;;;5121415;28;20200;-62
2021/10/14 00:44:49;;;;;;;6.30;2.57;;;;;;;;;;5121211;27;20274;-62
2021/10/14 00:47:18;;;;;;;2.20;2.00;;;;;;;;;;5120680;27;20690;-62
2021/10/14 00:49:47;;;;;;;5.63;2.47;;;;;;;;;;5121083;28;20235;-62
2021/10/14 00:52:16;;;;;;;3.00;1.73;;;;;;;;;;5121546;28;20209;-63
2021/10/14 00:54:44;;;;;;;4.20;2.20;;;;;;;;;;5121088;28;20315;-62
2021/10/14 00:57:12;;;;;;;2.90;2.10;;;;;;;;;;5120991;28;20572;-62
2021/10/14 00:59:40;;;;;;;4.03;2.30;;;;;;;;;;5121123;28;20205;-62
2021/10/14 01:02:08;;;;;;;2.70;2.27;;;;;;;;;;5120283;28;20287;-62
2021/10/14 01:04:37;;;;;;;6.07;2.27;;;;;;;;;;5120881;28;20231;-61
2021/10/14 01:07:06;;;;;;;4.30;2.10;;;;;;;;;;5120743;28;20566;-62
2021/10/14 01:09:34;;;;;;;2.50;1.83;;;;;;;;;;5120483;28;20235;-61
2021/10/14 01:12:03;;;;;;;5.00;2.60;;;;;;;;;;5120659;28;20209;-61
2021/10/14 01:14:31;;;;;;;2.70;2.07;;;;;;;;;;5120387;28;20263;-61
2021/10/14 01:16:59;;;;;;;3.80;2.17;;;;;;;;;;5120104;28;20209;-61
2021/10/14 01:19:28;;;;;;;3.43;2.50;;;;;;;;;;5120654;28;20205;-61
2021/10/14 01:21:57;;;;;;;2.63;2.10;;;;;;;;;;5120555;28;20209;-62
2021/10/14 01:24:25;;;;;;;3.70;1.90;;;;;;;;;;5120293;28;20221;-61
2021/10/14 01:26:53;;;;;;;3.90;2.03;;;;;;;;;;5120342;28;20294;-61
2021/10/14 01:29:21;;;;;;;3.13;2.13;;;;;;;;;;5120126;28;20231;-61
2021/10/14 01:31:49;;;;;;;2.40;1.83;;;;;;;;;;5120128;28;20207;-62
2021/10/14 01:34:17;;;;;;;3.27;2.30;;;;;;;;;;5120148;28;20262;-62
2021/10/14 01:36:45;;;;;;;3.40;2.50;;;;;;;;;;5120403;27;20209;-62
2021/10/14 01:39:15;;;;;;;3.37;2.20;;;;;;;;;;5120224;28;20316;-61
2021/10/14 01:41:44;;;;;;;3.37;2.20;;;;;;;;;;5119876;28;20208;-62
2021/10/14 01:44:12;;;;;;;6.00;2.40;;;;;;;;;;5120195;28;20311;-61
2021/10/14 01:46:41;;;;;;;2.53;2.20;;;;;;;;;;5117419;28;20605;-62
2021/10/14 01:49:09;;;;;;;5.07;2.13;;;;;;;;;;5115358;28;20201;-61
2021/10/14 01:51:37;;;;;;;3.33;2.80;;;;;;;;;;5118007;28;20715;-61
2021/10/14 01:54:05;;;;;;;4.73;2.73;;;;;;;;;;5119454;28;20225;-61
2021/10/14 01:56:34;;;;;;;3.43;2.50;;;;;;;;;;5119379;28;20201;-60
2021/10/14 01:59:02;;;;;;;4.13;2.30;;;;;;;;;;5119414;28;20674;-62
2021/10/14 02:01:30;;;;;;;2.70;2.27;;;;;;;;;;5116600;28;20197;-62
2021/10/14 02:03:58;;;;;;;3.97;2.57;;;;;;;;;;5119369;28;20217;-62
2021/10/14 02:06:26;;;;;;;3.33;2.20;;;;;;;;;;5119196;28;20197;-62
2021/10/14 02:08:54;;;;;;;3.37;2.47;;;;;;;;;;5118177;28;20717;-62
2021/10/14 02:11:22;;;;;;;3.70;2.43;;;;;;;;;;5118063;28;20216;-62
2021/10/14 02:13:52;;;;;;;4.13;2.63;;;;;;;;;;5118295;28;20216;-62
2021/10/14 02:16:20;;;;;;;3.57;2.27;;;;;;;;;;5117293;28;20197;-62
2021/10/14 02:18:48;;;;;;;4.87;2.40;;;;;;;;;;5118397;28;20197;-61
2021/10/14 02:21:17;;;;;;;3.67;2.37;;;;;;;;;;5116895;28;20280;-62
2021/10/14 02:23:45;;;;;;;3.80;2.20;;;;;;;;;;5118418;28;20256;-61
2021/10/14 02:26:13;;;;;;;3.47;2.20;;;;;;;;;;5117646;28;20570;-61
2021/10/14 02:28:41;;;;;;;5.80;2.77;;;;;;;;;;5117985;27;20239;-61
2021/10/14 02:31:11;;;;;;;5.03;2.60;;;;;;;;;;5117409;28;20234;-61
2021/10/14 02:33:39;;;;;;;4.07;2.43;;;;;;;;;;5115429;28;20201;-61
2021/10/14 02:36:07;;;;;;;3.37;2.70;;;;;;;;;;5117999;28;20268;-61
2021/10/14 02:38:35;;;;;;;3.47;2.63;;;;;;;;;;5116651;28;20220;-61
2021/10/14 02:41:03;;;;;;;4.53;2.40;;;;;;;;;;5116857;28;20258;-61
2021/10/14 02:43:31;;;;;;;4.93;2.63;;;;;;;;;;5117353;28;20193;-61
2021/10/14 02:45:59;;;;;;;4.53;3.10;;;;;;;;;;5117367;28;20216;-61
2021/10/14 02:48:29;;;;;;;4.03;2.67;;;;;;;;;;5118776;28;20232;-61
2021/10/14 02:50:57;;;;;;;5.30;2.47;;;;;;;;;;5118926;28;20232;-61
2021/10/14 02:53:25;;;;;;;4.63;2.40;;;;;;;;;;5119028;28;20211;-61
2021/10/14 02:55:53;;;;;;;4.10;2.70;;;;;;;;;;5118847;28;20201;-61
2021/10/14 02:58:21;;;;;;;3.10;2.30;;;;;;;;;;5118467;28;20284;-61
2021/10/14 03:00:49;;;;;;;5.30;2.93;;;;;;;;;;5118522;28;20287;-61
2021/10/14 03:03:17;;;;;;;3.67;2.53;;;;;;;;;;5118486;28;20212;-61
2021/10/14 03:05:46;;;;;;;3.73;2.80;;;;;;;;;;5118624;28;20299;-61
2021/10/14 03:08:14;;;;;;;4.47;2.50;;;;;;;;;;5118457;28;20209;-61
2021/10/14 03:10:42;;;;;;;4.03;2.60;;;;;;;;;;5118120;28;20228;-61
2021/10/14 03:13:10;;;;;;;4.47;2.47;;;;;;;;;;5118067;28;20295;-61
2021/10/14 03:15:39;;;;;;;4.03;3.03;;;;;;;;;;5118238;28;20625;-61
2021/10/14 03:18:07;;;;;;;3.80;2.63;;;;;;;;;;5104541;28;20212;-61
2021/10/14 03:20:35;;;;;;;4.47;2.50;;;;;;;;;;5118238;28;20269;-61
2021/10/14 03:23:05;;;;;;;3.83;2.97;;;;;;;;;;5118083;28;20685;-61
2021/10/14 03:25:33;;;;;;;3.17;2.70;;;;;;;;;;5118023;28;20604;-61
2021/10/14 03:28:01;;;;;;;4.30;2.90;;;;;;;;;;5118438;28;20240;-61
2021/10/14 03:30:29;;;;;;;4.27;3.13;;;;;;;;;;5117887;28;20660;-61
2021/10/14 03:32:57;;;;;;;4.30;2.80;;;;;;;;;;5117673;28;20767;-61
2021/10/14 03:35:25;;;;;;;8.97;3.53;;;;;;;;;;5118161;28;20231;-61
2021/10/14 03:37:53;;;;;;;6.07;3.00;;;;;;;;;;5118281;28;20287;-61
2021/10/14 03:40:22;;;;;;;5.83;3.10;;;;;;;;;;5117908;28;20228;-61
2021/10/14 03:42:50;;;;;;;6.27;3.27;;;;;;;;;;5118080;28;20287;-61
2021/10/14 03:45:18;;;;;;;4.23;3.20;;;;;;;;;;5118057;28;20228;-61
2021/10/14 03:47:47;;;;;;;4.80;3.57;;;;;;;;;;5114527;28;20283;-61
2021/10/14 03:50:15;;;;;;;6.57;2.70;;;;;;;;;;5117765;28;20205;-61
2021/10/14 03:52:43;;;;;;;4.87;3.47;;;;;;;;;;5121276;28;20577;-61
2021/10/14 03:55:11;;;;;;;3.43;2.93;;;;;;;;;;5121761;28;20598;-61
2021/10/14 03:57:40;;;;;;;5.37;3.47;;;;;;;;;;5115114;28;20296;-61
2021/10/14 04:00:09;;;;;;;6.07;2.97;;;;;;;;;;5105175;28;20752;-61
2021/10/14 04:02:37;;;;;;;4.60;3.20;;;;;;;;;;5103599;28;20280;-61
2021/10/14 04:05:06;;;;;;;5.53;3.27;;;;;;;;;;5102008;28;20231;-61
2021/10/14 04:07:34;;;;;;;4.67;2.80;;;;;;;;;;5112771;28;20253;-60
2021/10/14 04:10:04;;;;;;;5.30;3.07;;;;;;;;;;5120858;28;20276;-61
2021/10/14 04:12:32;;;;;;;3.87;3.10;;;;;;;;;;5121294;28;20284;-61
2021/10/14 04:15:02;;;;;;;3.67;3.00;;;;;;;;;;5118051;28;20233;-61
2021/10/14 04:17:30;;;;;;;4.87;3.07;;;;;;;;;;5112709;28;20236;-61
2021/10/14 04:19:58;;;;;;;4.17;3.03;;;;;;;;;;5113797;28;20209;-61
2021/10/14 04:22:27;;;;;;;5.97;3.70;;;;;;;;;;5113116;28;20281;-61
2021/10/14 04:24:55;;;;;;;5.33;3.10;;;;;;;;;;5113154;28;20320;-61
2021/10/14 04:27:24;;;;;;;6.90;4.43;;;;;;;;;;5117947;28;20248;-61
2021/10/14 04:29:52;;;;;;;4.97;3.50;;;;;;;;;;5114166;28;20197;-61
2021/10/14 04:32:21;;;;;;;6.43;3.70;;;;;;;;;;5114783;28;20289;-62
2021/10/14 04:34:50;;;;;;;9.77;4.10;;;;;;;;;;5113667;28;20217;-61
2021/10/14 04:37:19;;;;;;;4.43;2.90;;;;;;;;;;5116586;28;20575;-60
2021/10/14 04:39:46;;;;;;;4.80;3.70;;;;;;;;;;5121228;28;20239;-60
2021/10/14 04:42:14;;;;;;;4.53;3.60;;;;;;;;;;5120904;28;20249;-60
2021/10/14 04:44:42;;;;;;;5.20;3.50;;;;;;;;;;5120810;28;20228;-61
2021/10/14 04:47:10;;;;;;;6.23;3.37;;;;;;;;;;5120847;28;20265;-61
2021/10/14 04:49:40;;;;;;;5.90;3.83;;;;;;;;;;5121018;28;20209;-60
2021/10/14 04:52:11;;;;;;;5.80;3.63;;;;;;;;;;5107930;28;20710;-61
2021/10/14 04:54:39;;;;;;;5.67;3.87;;;;;;;;;;5120805;28;20312;-60
2021/10/14 04:57:07;;;;;;;6.43;3.80;;;;;;;;;;5121127;28;20204;-60
2021/10/14 04:59:35;;;;;;;4.60;3.13;;;;;;;;;;5121226;27;20292;-61
2021/10/14 05:02:03;;;;;;;7.77;3.63;;;;;;;;;;5119855;28;20295;-60
2021/10/14 05:04:32;;;;;;;4.57;3.50;;;;;;;;;;5121247;27;20220;-60
2021/10/14 05:07:01;;;;;;;3.43;3.13;;;;;;;;;;5120656;28;20287;-60
2021/10/14 05:09:29;;;;;;;6.90;3.60;;;;;;;;;;5120614;28;20215;-60
2021/10/14 05:11:57;;;;;;;4.43;3.93;;;;;;;;;;5120194;28;20298;-61
2021/10/14 05:14:25;;;;;;;8.43;4.13;;;;;;;;;;5128491;27;20259;-60
2021/10/14 05:16:53;;;;;;;4.93;3.83;;;;;;;;;;5130799;27;20280;-60
2021/10/14 05:19:21;;;;;;;7.23;3.63;;;;;;;;;;5125819;27;20264;-60
2021/10/14 05:21:50;;;;;;;8.37;3.40;;;;;;;;;;5120221;27;20211;-60
2021/10/14 05:24:20;;;;;;;5.20;3.97;;;;;;;;;;5120029;28;20266;-61
2021/10/14 05:26:48;;;;;;;7.27;3.57;;;;;;;;;;5109370;28;20208;-60
2021/10/14 05:29:16;;;;;;;5.93;3.97;;;;;;;;;;5117014;27;20197;-61
2021/10/14 05:31:44;;;;;;;4.70;3.67;;;;;;;;;;5126323;27;20659;-61
2021/10/14 05:34:12;;;;;;;8.40;4.07;;;;;;;;;;5126215;27;20239;-61
2021/10/14 05:36:40;;;;;;;5.40;3.77;;;;;;;;;;5125204;27;20201;-60
2021/10/14 05:39:08;;;;;;;4.80;3.83;;;;;;;;;;5119770;28;20236;-61
2021/10/14 05:41:37;;;;;;;6.93;4.17;;;;;;;;;;5119962;28;20207;-60
2021/10/14 05:44:05;;;;;;;4.80;3.80;;;;;;;;;;5119799;28;20225;-61
2021/10/14 05:46:33;;;;;;;6.90;4.17;;;;;;;;;;5119156;28;20208;-61
2021/10/14 05:49:02;;;;;;;6.03;4.10;;;;;;;;;;5119328;28;20201;-61
2021/10/14 05:51:30;;;;;;;4.13;3.53;;;;;;;;;;5119355;28;20224;-60
2021/10/14 05:53:58;;;;;;;6.43;4.00;;;;;;;;;;5119743;28;20221;-60
2021/10/14 05:56:26;;;;;;;6.57;3.73;;;;;;;;;;5119622;28;20209;-61
2021/10/14 05:58:55;;;;;;;5.10;4.33;;;;;;;;;;5119368;28;20285;-60
2021/10/14 06:01:25;;;;;;;5.43;4.20;;;;;;;;;;5119037;28;20668;-62
2021/10/14 06:03:55;;;;;;;9.43;3.70;;;;;;;;;;5119483;28;20715;-62
2021/10/14 06:06:24;;;;;;;6.73;3.73;;;;;;;;;;5119650;28;20258;-62
2021/10/14 06:08:52;;;;;;;5.97;3.83;;;;;;;;;;5119287;28;20205;-62
2021/10/14 06:11:20;;;;;;;5.30;4.20;;;;;;;;;;5119192;28;20240;-61
2021/10/14 06:13:49;;;;;;;6.07;4.00;;;;;;;;;;5118303;28;20225;-61
2021/10/14 06:16:19;;;;;;;9.70;3.97;;;;;;;;;;5119042;28;20204;-61
2021/10/14 06:18:47;;;;;;;8.10;4.63;;;;;;;;;;5105412;28;20205;-62
2021/10/14 06:21:15;;;;;;;9.70;3.73;;;;;;;;;;5119047;28;20262;-61
2021/10/14 06:23:44;;;;;;;9.07;4.77;;;;;;;;;;5118835;28;20680;-61
2021/10/14 06:26:12;;;;;;;6.80;4.67;;;;;;;;;;5118966;28;20212;-62
2021/10/14 06:28:40;;;;;;;5.00;3.63;;;;;;;;;;5119029;28;20201;-62
2021/10/14 06:31:08;;;;;;;8.13;4.57;;;;;;;;;;5118373;28;20292;-62
2021/10/14 06:33:38;;;;;;;5.37;3.60;;;;;;;;;;5118772;28;20247;-62
2021/10/14 06:36:06;;;;;;;9.73;4.70;;;;;;;;;;5118793;28;20281;-62
2021/10/14 06:38:34;;;;;;;7.53;4.00;;;;;;;;;;5118599;28;20241;-62
2021/10/14 06:41:03;;;;;;;7.80;4.10;;;;;;;;;;5118883;28;20258;-62
2021/10/14 06:43:31;;;;;;;4.70;4.07;;;;;;;;;;5118833;28;20228;-62
2021/10/14 06:45:59;;;;;;;6.27;4.37;;;;;;;;;;5117953;28;20687;-61
2021/10/14 06:48:27;;;;;;;4.33;3.47;;;;;;;;;;5118652;28;20204;-61
2021/10/14 06:50:58;;;;;;;8.30;5.40;;;;;;;;;;5118456;28;20729;-61
2021/10/14 06:53:27;;;;;;;8.97;3.93;;;;;;;;;;5119422;28;20229;-62
2021/10/14 06:55:55;;;;;;;7.27;4.00;;;;;;;;;;5118451;28;20626;-62
2021/10/14 06:58:23;;;;;;;9.17;3.87;;;;;;;;;;5125628;27;20678;-62
2021/10/14 07:00:51;;;;;;;9.23;4.67;;;;;;;;;;5124619;27;20201;-60
2021/10/14 07:03:19;;;;;;;6.83;4.77;;;;;;;;;;5127797;27;20200;-60
2021/10/14 07:05:48;;;;;;;7.30;4.20;;;;;;;;;;5125094;27;20223;-60
2021/10/14 07:08:18;;;;;;;5.57;3.97;;;;;;;;;;5118627;28;20721;-61
2021/10/14 07:10:47;;;;;;;9.80;4.20;;;;;;;;;;5118273;28;20200;-61
2021/10/14 07:13:16;;;;;;;11.27;4.70;;;;;;;;;;5118872;28;20239;-61
2021/10/14 07:15:44;;;;;;;7.20;4.40;;;;;;;;;;5117399;28;20224;-61
2021/10/14 07:18:12;;;;;;;6.67;4.20;;;;;;;;;;5118277;28;20236;-61
2021/10/14 07:20:41;;;;;;;6.13;4.30;;;;;;;;;;5118025;28;20208;-61
2021/10/14 07:23:10;;;;;;;5.53;4.00;;;;;;;;;;5118042;28;20207;-61
2021/10/14 07:25:40;;;;;;;8.70;4.77;;;;;;;;;;5117399;28;20263;-61
2021/10/14 07:28:09;;;;;;;7.23;4.40;;;;;;;;;;5118042;28;20209;-61
2021/10/14 07:30:38;;;;;;;11.03;5.10;;;;;;;;;;5117946;28;20339;-61
2021/10/14 07:33:06;;;;;;;11.07;5.03;;;;;;;;;;5117886;28;20267;-60
2021/10/14 07:35:35;;;;;;;5.77;4.17;;;;;;;;;;5126242;27;20220;-61
2021/10/14 07:38:04;;;;;;;6.43;4.50;;;;;;;;;;5123902;27;20687;-60
2021/10/14 07:40:34;;;;;;;9.33;4.83;;;;;;;;;;5120226;28;20319;-61
2021/10/14 07:43:05;;;;;;;8.57;4.60;;;;;;;;;;5117793;28;20611;-61
2021/10/14 07:45:33;;;;;;;6.00;4.47;;;;;;;;;;5117463;28;20225;-61
2021/10/14 07:48:02;;;;;;;6.87;4.20;;;;;;;;;;5117810;28;20291;-61
2021/10/14 07:50:30;;;;;;;10.33;4.70;;;;;;;;;;5118008;28;20215;-61
2021/10/14 07:52:58;;;;;;;8.47;4.90;;;;;;;;;;5117794;28;20263;-61
2021/10/14 07:55:26;;;;;;;7.80;4.50;;;;;;;;;;5117388;28;20240;-60
2021/10/14 07:57:54;;;;;;;7.13;4.30;;;;;;;;;;5117720;28;20232;-60
2021/10/14 08:00:23;;;;;;;7.00;4.93;;;;;;;;;;5117740;28;20209;-61
2021/10/14 08:02:55;;;;;;;8.77;4.30;;;;;;;;;;5117954;28;20197;-61
2021/10/14 08:05:24;;;;;;;6.50;4.63;;;;;;;;;;5117818;28;20225;-61
2021/10/14 08:07:55;;;;;;;6.80;4.80;;;;;;;;;;5117572;28;20208;-60
2021/10/14 08:10:23;;;;;;;8.40;5.30;;;;;;;;;;5117907;28;20215;-60
2021/10/14 08:12:51;;;;;;;8.13;5.27;;;;;;;;;;5117419;28;20315;-60
2021/10/14 08:15:21;;;;;;;8.70;5.20;;;;;;;;;;5117385;28;20603;-61
2021/10/14 08:17:51;;;;;;;8.17;4.97;;;;;;;;;;5117066;28;20209;-60
2021/10/14 08:20:19;;;;;;;8.70;5.63;;;;;;;;;;5117366;28;20755;-61
2021/10/14 08:22:49;;;;;;;13.13;5.90;;;;;;;;;;5117251;28;20197;-60
2021/10/14 08:25:17;;;;;;;10.00;6.43;;;;;;;;;;5117061;28;20422;-61
2021/10/14 08:27:46;;;;;;;7.70;6.40;;;;;;;;;;5117211;28;20201;-61
2021/10/14 08:30:14;;;;;;;9.43;6.30;;;;;;;;;;5117509;28;20272;-61
2021/10/14 08:32:43;;;;;;;9.33;6.10;;;;;;;;;;5112497;28;20258;-61
2021/10/14 08:35:13;;;;;;;13.30;6.40;;;;;;;;;;5117389;28;20229;-60
2021/10/14 08:37:41;;;;;;;9.33;6.67;;;;;;;;;;5119057;28;20205;-60
2021/10/14 08:40:09;;;;;;;12.13;6.53;;;;;;;;;;5121088;28;20236;-61
2021/10/14 08:42:38;;;;;;;9.90;5.73;;;;;;;;;;5120838;28;20269;-61
2021/10/14 08:45:07;;;;;;;11.63;6.77;;;;;;;;;;5120619;28;20552;-61
2021/10/14 08:47:35;;;;;;;10.50;7.33;;;;;;;;;;5117517;28;20204;-61
2021/10/14 08:50:04;;;;;;;7.70;5.63;;;;;;;;;;5120952;28;20201;-61
2021/10/14 08:52:34;;;;;;;16.03;6.57;;;;;;;;;;5120781;28;20268;-61
2021/10/14 08:55:05;;;;;;;13.83;6.33;;;;;;;;;;5120483;28;20680;-60
2021/10/14 08:57:33;;;;;;;12.63;6.40;;;;;;;;;;5124819;27;20202;-61
2021/10/14 09:00:01;;;;;;;11.83;6.50;;;;;;;;;;5129231;27;20204;-60
2021/10/14 09:02:30;;;;;;;11.47;7.23;;;;;;;;;;5129758;27;20224;-61
2021/10/14 09:05:00;;;;;;;14.50;7.27;;;;;;;;;;5121236;27;20236;-61
2021/10/14 09:07:29;;;;;;;9.00;6.43;;;;;;;;;;5121171;28;20205;-61
2021/10/14 09:10:00;;;;;;;10.80;6.17;;;;;;;;;;5120556;28;20672;-61
2021/10/14 09:12:33;;;;;;;9.57;6.20;;;;;;;;;;5120362;28;20205;-61
2021/10/14 09:15:03;;;;;;;9.23;6.60;;;;;;;;;;5120057;28;20319;-61
2021/10/14 09:17:45;;;;;;;12.73;6.60;;;;;;;;;;5124951;27;20226;-61
2021/10/14 09:20:24;;;;;;;12.97;6.70;;;;;;;;;;5129660;27;20706;-61
2021/10/14 09:22:55;;;;;;;10.10;6.60;;;;;;;;;;5124153;27;20249;-61
2021/10/14 09:25:32;;;;;;;10.23;6.43;;;;;;;;;;5120413;28;20304;-61
2021/10/14 09:28:07;;;;;;;10.50;5.87;;;;;;;;;;5119995;28;20368;-61
2021/10/14 09:30:43;;;;;;;10.83;6.10;;;;;;;;;;5119930;28;20292;-61
2021/10/14 09:33:26;;;;;;;10.27;6.40;;;;;;;;;;5119894;28;20227;-61
2021/10/14 09:35:54;;;;;;;10.67;6.03;;;;;;;;;;5119842;28;20744;-61
2021/10/14 09:38:31;;;;;;;11.23;6.10;;;;;;;;;;5119725;28;20209;-62
2021/10/14 09:41:04;;;;;;;8.67;5.80;;;;;;;;;;5119951;28;20272;-61
2021/10/14 09:43:32;;;;;;;7.13;5.63;;;;;;;;;;5119921;28;20205;-61
2021/10/14 09:46:01;;;;;;;8.50;6.03;;;;;;;;;;5119343;28;20240;-61
2021/10/14 09:48:29;;;;;;;9.07;6.23;;;;;;;;;;5119703;28;20683;-61
2021/10/14 09:50:57;;;;;;;9.80;6.77;;;;;;;;;;5119452;28;20229;-61
2021/10/14 09:53:25;;;;;;;8.73;5.67;;;;;;;;;;5119814;28;20209;-61
2021/10/14 09:55:55;;;;;;;9.93;6.27;;;;;;;;;;5119802;28;20264;-61
2021/10/14 09:58:25;;;;;;;6.40;4.90;;;;;;;;;;5119641;28;20212;-60
2021/10/14 10:00:53;;;;;;;7.30;5.83;;;;;;;;;;5119453;28;20204;-61
2021/10/14 10:03:23;;;;;;;8.83;5.47;;;;;;;;;;5123411;27;20276;-63
2021/10/14 10:05:52;;;;;;;10.63;6.27;;;;;;;;;;5125366;27;20307;-63
2021/10/14 10:08:27;;;;;;;9.00;5.80;;;;;;;;;;5119589;28;20205;-63
2021/10/14 10:10:55;;;;;;;10.07;6.47;;;;;;;;;;5119216;28;20638;-63
2021/10/14 10:13:25;;;;;;;12.97;6.07;;;;;;;;;;5119514;28;20288;-62
2021/10/14 10:15:53;;;;;;;12.63;5.90;;;;;;;;;;5118446;28;20225;-62
2021/10/14 10:18:40;;;;;;;8.07;5.37;;;;;;;;;;5119020;28;20209;-62
2021/10/14 10:21:09;;;;;;;9.90;5.30;;;;;;;;;;5119094;28;20289;-62
2021/10/14 10:23:47;;;;;;;8.57;5.33;;;;;;;;;;5119089;28;20207;-63
2021/10/14 10:26:34;;;;;;;8.87;5.27;;;;;;;;;;5127884;27;20207;-62
2021/10/14 10:29:04;;;;;;;11.40;4.90;;;;;;;;;;5126820;27;20601;-62
2021/10/14 10:31:48;;;;;;;9.77;6.07;;;;;;;;;;5128974;27;20207;-62
2021/10/14 10:34:32;;;;;;;7.33;5.23;;;;;;;;;;5118742;28;20699;-61
2021/10/14 10:37:10;;;;;;;8.90;5.03;;;;;;;;;;5119005;28;20704;-63
2021/10/14 10:39:43;;;;;;;10.13;4.67;;;;;;;;;;5119079;28;20767;-62
2021/10/14 10:42:15;;;;;;;9.07;4.30;;;;;;;;;;5119049;28;20215;-63
2021/10/14 10:44:45;;;;;;;9.57;4.50;;;;;;;;;;5119217;28;20227;-63
2021/10/14 10:47:31;;;;;;;7.37;4.07;;;;;;;;;;5118162;28;20209;-63
2021/10/14 10:50:02;;;;;;;6.07;3.67;;;;;;;;;;5118274;28;20213;-63
2021/10/14 10:52:33;;;;;;;5.90;4.17;;;;;;;;;;5105349;28;20209;-63
2021/10/14 10:55:01;;;;;;;10.07;4.83;;;;;;;;;;5118828;28;20239;-63
2021/10/14 10:57:45;;;;;;;9.50;4.73;;;;;;;;;;5118714;28;20569;-63
2021/10/14 11:00:15;;;;;;;8.90;4.00;;;;;;;;;;5118350;27;20288;-63
2021/10/14 11:02:43;;;;;;;7.97;4.73;;;;;;;;;;5118095;28;20634;-63
2021/10/14 11:05:12;;;;;;;6.30;4.20;;;;;;;;;;5118352;28;20221;-63
2021/10/14 11:07:40;;;;;;;6.87;4.50;;;;;;;;;;5118384;28;20545;-63
2021/10/14 11:10:08;;;;;;;9.43;5.30;;;;;;;;;;5118547;28;20215;-62
2021/10/14 11:12:36;;;;;;;10.33;4.80;;;;;;;;;;5118628;28;20292;-62
2021/10/14 11:15:18;;;;;;;7.50;4.67;;;;;;;;;;5118216;28;20235;-63
2021/10/14 11:17:47;;;;;;;10.53;4.70;;;;;;;;;;5117999;28;20712;-63
2021/10/14 11:20:15;;;;;;;8.30;4.43;;;;;;;;;;5118255;28;20197;-62
2021/10/14 11:22:47;;;;;;;6.63;4.47;;;;;;;;;;5118492;28;20205;-63
2021/10/14 11:25:16;;;;;;;6.17;3.87;;;;;;;;;;5118982;28;20295;-63
2021/10/14 11:27:46;;;;;;;6.43;4.63;;;;;;;;;;5118261;28;20213;-61
2021/10/14 11:30:16;;;;;;;5.67;3.93;;;;;;;;;;5117922;28;20203;-63
2021/10/14 11:33:10;;;;;;;6.43;3.83;;;;;;;;;;5117680;28;20285;-63
2021/10/14 11:35:59;;;;;;;9.17;4.73;;;;;;;;;;5117914;28;20251;-63
2021/10/14 11:38:27;;;;;;;4.67;4.13;;;;;;;;;;5117978;28;20291;-63
2021/10/14 11:40:56;;;;;;;5.73;4.50;;;;;;;;;;5117795;28;20215;-63
2021/10/14 11:43:25;;;;;;;10.00;4.80;;;;;;;;;;5118231;28;20207;-63
2021/10/14 11:45:53;;;;;;;6.43;4.27;;;;;;;;;;5117708;28;20200;-63
2021/10/14 11:48:30;;;;;;;6.40;3.60;;;;;;;;;;5117873;28;20569;-63
2021/10/14 11:51:05;;;;;;;6.63;3.80;;;;;;;;;;5117902;28;20205;-63
2021/10/14 11:53:34;;;;;;;5.23;3.87;;;;;;;;;;5117683;28;20204;-63
2021/10/14 11:56:07;;;;;;;8.47;4.30;;;;;;;;;;5117778;28;20264;-63
2021/10/14 11:58:35;;;;;;;6.23;4.23;;;;;;;;;;5117689;28;20231;-63
2021/10/14 12:01:04;;;;;;;4.67;4.20;;;;;;;;;;5117255;28;20300;-63
2021/10/14 12:03:35;;;;;;;6.07;3.90;;;;;;;;;;5117682;28;20209;-63
2021/10/14 12:06:03;;;;;;;7.23;4.40;;;;;;;;;;5117832;28;20304;-63
2021/10/14 12:08:31;;;;;;;7.60;4.23;;;;;;;;;;5117713;28;20895;-63
2021/10/14 12:10:59;;;;;;;11.10;3.80;;;;;;;;;;5117743;28;20211;-63
2021/10/14 12:13:28;;;;;;;5.93;4.10;;;;;;;;;;5120559;28;20296;-63
2021/10/14 12:16:09;;;;;;;12.57;4.77;;;;;;;;;;5121404;27;20227;-63
2021/10/14 12:18:39;;;;;;;7.13;4.83;;;;;;;;;;5121579;28;20244;-63
2021/10/14 12:21:21;;;;;;;8.83;5.40;;;;;;;;;;5121552;28;20666;-63
2021/10/14 12:24:02;;;;;;;6.97;4.20;;;;;;;;;;5121217;28;20573;-63
2021/10/14 12:26:33;;;;;;;6.77;4.73;;;;;;;;;;5118240;28;20287;-63
2021/10/14 12:29:16;;;;;;;8.60;4.03;;;;;;;;;;5121655;28;20291;-63
2021/10/14 12:31:44;;;;;;;6.60;4.67;;;;;;;;;;5119824;28;20205;-62
2021/10/14 12:34:14;;;;;;;6.00;4.17;;;;;;;;;;5121457;28;20235;-63
2021/10/14 12:36:42;;;;;;;5.93;4.47;;;;;;;;;;5121247;28;20703;-62
2021/10/14 12:39:18;;;;;;;7.37;3.93;;;;;;;;;;5120922;28;20591;-61
2021/10/14 12:41:53;;;;;;;6.27;4.03;;;;;;;;;;5121573;28;20276;-61
2021/10/14 12:44:24;;;;;;;6.07;3.67;;;;;;;;;;5121357;28;20231;-62
2021/10/14 12:46:58;;;;;;;10.60;4.97;;;;;;;;;;5121202;28;20211;-62
2021/10/14 12:49:40;;;;;;;11.57;4.87;;;;;;;;;;5121319;28;20215;-62
2021/10/14 12:52:15;;;;;;;5.63;3.83;;;;;;;;;;5121016;28;20205;-62
2021/10/14 12:54:44;;;;;;;13.77;5.60;;;;;;;;;;5120831;28;20300;-63
2021/10/14 12:57:12;;;;;;;9.67;5.40;;;;;;;;;;5120730;28;20221;-63
2021/10/14 12:59:40;;;;;;;6.53;5.17;;;;;;;;;;5120884;28;20547;-62
2021/10/14 13:02:09;;;;;;;8.80;5.53;;;;;;;;;;5120706;28;20211;-62
2021/10/14 13:04:40;;;;;;;6.40;4.83;;;;;;;;;;5121115;28;20227;-62
2021/10/14 13:07:08;;;;;;;8.33;4.47;;;;;;;;;;5121011;28;20265;-62
2021/10/14 13:09:36;;;;;;;7.17;5.00;;;;;;;;;;5120873;28;20213;-62
2021/10/14 13:12:04;;;;;;;8.97;5.20;;;;;;;;;;5120864;27;20205;-63
2021/10/14 13:14:37;;;;;;;8.03;5.20;;;;;;;;;;5120601;28;20259;-62
2021/10/14 13:17:06;;;;;;;10.90;5.83;;;;;;;;;;5120320;28;20220;-62
2021/10/14 13:19:34;;;;;;;7.60;5.07;;;;;;;;;;5120541;28;20211;-62
2021/10/14 13:22:03;;;;;;;9.33;5.33;;;;;;;;;;5107201;28;20205;-62
2021/10/14 13:24:31;;;;;;;8.33;5.40;;;;;;;;;;5119837;28;20228;-62
2021/10/14 13:26:59;;;;;;;8.83;5.20;;;;;;;;;;5120600;28;20211;-62
2021/10/14 13:29:27;;;;;;;9.07;5.17;;;;;;;;;;5120705;28;20299;-63
2021/10/14 13:31:55;;;;;;;7.50;5.47;;;;;;;;;;5120160;28;20204;-63
2021/10/14 13:34:28;;;;;;;7.53;5.03;;;;;;;;;;5120374;28;20235;-62
2021/10/14 13:36:56;;;;;;;7.33;5.07;;;;;;;;;;5119944;28;20228;-62
2021/10/14 13:39:25;;;;;;;8.73;5.27;;;;;;;;;;5119654;28;20240;-62
2021/10/14 13:42:00;;;;;;;9.20;5.00;;;;;;;;;;5120124;28;20201;-62
2021/10/14 13:44:30;;;;;;;10.83;5.73;;;;;;;;;;5119988;28;20314;-62
2021/10/14 13:46:58;;;;;;;7.90;5.20;;;;;;;;;;5119821;28;20197;-62
2021/10/14 13:49:26;;;;;;;7.77;4.87;;;;;;;;;;5120161;28;20211;-62
2021/10/14 13:51:54;;;;;;;7.97;4.53;;;;;;;;;;5119784;28;20204;-63
2021/10/14 13:54:22;;;;;;;7.67;5.30;;;;;;;;;;5119775;27;20236;-62
2021/10/14 13:56:51;;;;;;;9.17;4.90;;;;;;;;;;5119899;28;20239;-62
2021/10/14 13:59:21;;;;;;;9.27;4.57;;;;;;;;;;5119876;28;20215;-62
2021/10/14 14:01:49;;;;;;;7.53;4.60;;;;;;;;;;5119298;28;20236;-62
2021/10/14 14:04:17;;;;;;;9.37;5.80;;;;;;;;;;5119785;28;20235;-62
2021/10/14 14:06:45;;;;;;;8.17;4.83;;;;;;;;;;5119628;28;20289;-62
2021/10/14 14:09:13;;;;;;;7.90;5.00;;;;;;;;;;5119480;28;20200;-62
2021/10/14 14:11:42;;;;;;;7.00;5.17;;;;;;;;;;5119265;27;20237;-62
2021/10/14 14:14:11;;;;;;;10.23;4.60;;;;;;;;;;5119344;28;20304;-62
2021/10/14 14:16:39;;;;;;;10.40;5.20;;;;;;;;;;5118866;28;20311;-62
2021/10/14 14:19:08;;;;;;;9.43;5.30;;;;;;;;;;5119471;28;20212;-62
2021/10/14 14:21:36;;;;;;;7.30;4.93;;;;;;;;;;5119426;28;20197;-62
2021/10/14 14:24:05;;;;;;;7.90;4.77;;;;;;;;;;5119195;27;20224;-62
2021/10/14 14:26:33;;;;;;;8.60;5.10;;;;;;;;;;5119252;28;20209;-62
2021/10/14 14:29:01;;;;;;;7.90;4.43;;;;;;;;;;5118095;28;20224;-62
2021/10/14 14:31:30;;;;;;;5.47;3.93;;;;;;;;;;5117525;28;20665;-63
2021/10/14 14:33:58;;;;;;;6.77;4.37;;;;;;;;;;5115566;28;20221;-63
2021/10/14 14:36:31;;;;;;;8.87;5.07;;;;;;;;;;5117674;28;20229;-62
2021/10/14 14:38:59;;;;;;;6.47;4.90;;;;;;;;;;5118846;28;20239;-62
2021/10/14 14:41:27;;;;;;;10.10;5.13;;;;;;;;;;5117693;28;20280;-62
2021/10/14 14:43:55;;;;;;;10.33;5.27;;;;;;;;;;5117204;28;20223;-63
2021/10/14 14:46:27;;;;;;;5.40;4.67;;;;;;;;;;5117015;28;20672;-63
2021/10/14 14:48:58;;;;;;;10.97;4.83;;;;;;;;;;5117704;28;20262;-63
2021/10/14 14:51:26;;;;;;;9.97;5.40;;;;;;;;;;5117356;28;20204;-62
2021/10/14 14:53:54;;;;;;;9.80;4.87;;;;;;;;;;5117266;28;20584;-63